createdAt,value
2023-04-07T00:01:31.380Z,23.20
2023-04-07T00:04:18.606Z,18.92
2023-04-07T00:07:05.738Z,24.83
2023-04-07T00:09:52.652Z,15.20
2023-04-07T00:12:39.647Z,16.17
2023-04-07T00:15:26.725Z,19.70
2023-04-07T00:18:13.702Z,19.55
2023-04-07T00:21:00.705Z,18.05
2023-04-07T00:23:47.834Z,24.45
2023-04-07T00:26:34.767Z,20.60
2023-04-07T00:29:21.857Z,17.65
2023-04-07T00:32:08.734Z,16.85
2023-04-07T00:34:55.803Z,16.83
2023-04-07T00:37:42.815Z,16.52
2023-04-07T00:40:29.809Z,15.90
2023-04-07T00:43:16.806Z,18.58
2023-04-07T00:46:04.024Z,14.57
2023-04-07T00:48:51.032Z,13.27
2023-04-07T00:51:38.167Z,17.30
2023-04-07T00:54:25.426Z,14.18
2023-04-07T00:57:12.613Z,18.85
2023-04-07T00:59:59.784Z,13.15
2023-04-07T01:03:00.187Z,17.90
2023-04-07T01:05:56.347Z,18.38
2023-04-07T01:09:12.523Z,12.70
2023-04-07T01:12:31.988Z,15.52
2023-04-07T01:15:22.687Z,17.35
2023-04-07T01:18:15.508Z,13.55
2023-04-07T01:21:17.447Z,17.50
2023-04-07T01:24:40.892Z,14.90
2023-04-07T01:30:30.978Z,16.75
2023-04-07T01:33:19.152Z,14.25
2023-04-07T01:36:07.966Z,13.32
2023-04-07T01:38:56.008Z,23.55
2023-04-07T01:41:44.943Z,12.93
2023-04-07T01:44:32.958Z,14.20
2023-04-07T01:47:20.724Z,16.52
2023-04-07T01:50:10.200Z,13.00
2023-04-07T01:52:57.558Z,22.10
2023-04-07T01:55:45.119Z,12.25
2023-04-07T01:58:32.034Z,13.23
2023-04-07T02:01:19.254Z,12.73
2023-04-07T02:04:16.564Z,13.73
2023-04-07T02:07:09.594Z,14.50
2023-04-07T02:09:59.136Z,14.10
2023-04-07T02:12:47.800Z,12.98
2023-04-07T02:15:37.525Z,15.23
2023-04-07T02:18:27.226Z,13.63
2023-04-07T02:21:16.067Z,13.75
2023-04-07T02:24:06.856Z,13.68
2023-04-07T02:26:53.750Z,13.75
2023-04-07T02:29:40.852Z,20.08
2023-04-07T02:32:27.785Z,13.88
2023-04-07T02:35:16.683Z,11.40
2023-04-07T02:38:03.621Z,13.05
2023-04-07T02:40:50.600Z,15.70
2023-04-07T02:43:37.527Z,13.27
2023-04-07T02:46:24.496Z,18.50
2023-04-07T02:49:11.699Z,11.80
2023-04-07T02:51:58.670Z,10.77
2023-04-07T02:54:45.598Z,16.52
2023-04-07T02:57:32.542Z,20.33
2023-04-07T03:00:19.586Z,15.23
2023-04-07T03:03:07.167Z,13.52
2023-04-07T03:05:54.304Z,18.02
2023-04-07T03:08:42.297Z,20.38
2023-04-07T03:11:29.288Z,13.45
2023-04-07T03:14:16.458Z,22.55
2023-04-07T03:17:04.435Z,18.63
2023-04-07T03:19:51.964Z,16.90
2023-04-07T03:22:38.932Z,16.40
2023-04-07T03:25:26.710Z,21.55
2023-04-07T03:28:13.666Z,12.73
2023-04-07T03:31:00.656Z,17.35
2023-04-07T03:33:47.596Z,17.08
2023-04-07T03:36:34.546Z,12.00
2023-04-07T03:39:21.493Z,15.98
2023-04-07T03:42:08.516Z,19.38
2023-04-07T03:44:55.886Z,14.30
2023-04-07T03:47:42.897Z,16.05
2023-04-07T03:50:29.824Z,15.65
2023-04-07T03:53:16.931Z,16.10
2023-04-07T03:56:04.419Z,13.23
2023-04-07T03:58:51.380Z,13.00
2023-04-07T04:01:38.479Z,15.93
2023-04-07T04:04:25.616Z,15.38
2023-04-07T04:07:12.561Z,11.52
2023-04-07T04:09:59.516Z,13.60
2023-04-07T04:12:47.926Z,15.57
2023-04-07T04:15:34.976Z,38.75
2023-04-07T04:18:21.974Z,11.45
2023-04-07T04:21:09.397Z,14.80
2023-04-07T04:23:56.319Z,14.65
2023-04-07T04:26:43.272Z,17.60
2023-04-07T04:29:32.318Z,16.65
2023-04-07T04:32:20.209Z,17.60
2023-04-07T04:35:07.403Z,15.75
2023-04-07T04:37:54.613Z,13.10
2023-04-07T04:40:42.282Z,18.75
2023-04-07T04:43:29.193Z,15.95
2023-04-07T04:46:17.302Z,19.55
2023-04-07T04:49:04.199Z,30.83
2023-04-07T04:51:51.229Z,18.20
2023-04-07T04:54:38.180Z,16.13
2023-04-07T04:57:25.464Z,24.15
2023-04-07T05:00:13.189Z,19.98
2023-04-07T05:03:00.265Z,30.13
2023-04-07T05:05:48.618Z,36.85
2023-04-07T05:08:35.672Z,29.40
2023-04-07T05:11:22.635Z,21.35
2023-04-07T05:14:09.616Z,24.40
2023-04-07T05:16:56.908Z,33.70
2023-04-07T05:19:43.915Z,13.95
2023-04-07T05:22:30.864Z,17.52
2023-04-07T05:25:17.833Z,20.92
2023-04-07T05:28:04.863Z,15.93
2023-04-07T05:30:51.822Z,18.23
2023-04-07T05:33:38.783Z,21.02
2023-04-07T05:36:25.781Z,20.83
2023-04-07T05:39:12.796Z,17.77
2023-04-07T05:41:59.725Z,17.63
2023-04-07T05:44:46.663Z,18.48
2023-04-07T05:47:33.685Z,14.60
2023-04-07T05:50:20.697Z,17.85
2023-04-07T05:53:07.637Z,21.30
2023-04-07T05:55:54.575Z,19.25
2023-04-07T05:58:41.542Z,19.77
2023-04-07T06:01:29.362Z,16.83
2023-04-07T06:04:16.408Z,15.88
2023-04-07T06:07:03.348Z,14.60
2023-04-07T06:09:50.499Z,12.77
2023-04-07T06:12:37.355Z,13.88
2023-04-07T06:15:24.405Z,13.20
2023-04-07T06:18:11.332Z,16.48
2023-04-07T06:20:58.302Z,15.45
2023-04-07T06:23:45.345Z,18.20
2023-04-07T06:26:32.579Z,13.95
2023-04-07T06:29:19.538Z,16.10
2023-04-07T06:32:06.764Z,13.43
2023-04-07T06:34:53.709Z,18.73
2023-04-07T06:37:41.096Z,18.77
2023-04-07T06:40:28.221Z,16.77
2023-04-07T06:43:15.252Z,15.55
2023-04-07T06:46:02.205Z,17.45
2023-04-07T06:48:49.178Z,13.63
2023-04-07T06:51:36.330Z,13.35
2023-04-07T06:54:23.370Z,18.45
2023-04-07T06:57:12.188Z,16.48
2023-04-07T06:59:59.134Z,14.77
2023-04-07T07:02:46.444Z,15.18
2023-04-07T07:05:33.525Z,15.93
2023-04-07T07:08:20.703Z,18.73
2023-04-07T07:11:07.886Z,23.80
2023-04-07T07:13:55.087Z,13.05
2023-04-07T07:16:41.997Z,19.05
2023-04-07T07:19:28.956Z,15.10
2023-04-07T07:22:15.953Z,13.43
2023-04-07T07:25:03.415Z,15.43
2023-04-07T07:27:53.351Z,17.77
2023-04-07T07:30:43.496Z,15.32
2023-04-07T07:33:30.718Z,18.80
2023-04-07T07:36:18.107Z,12.45
2023-04-07T07:39:05.756Z,12.95
2023-04-07T07:41:53.048Z,16.35
2023-04-07T07:44:39.950Z,13.27
2023-04-07T07:47:26.991Z,12.95
2023-04-07T07:50:14.027Z,14.77
2023-04-07T07:53:01.500Z,17.45
2023-04-07T07:55:48.487Z,19.13
2023-04-07T07:58:35.564Z,15.77
2023-04-07T08:01:22.472Z,14.98
2023-04-07T08:04:09.758Z,19.73
2023-04-07T08:06:56.917Z,18.80
2023-04-07T08:09:43.826Z,14.55
2023-04-07T08:12:31.096Z,16.58
2023-04-07T08:15:18.020Z,14.95
2023-04-07T08:18:06.426Z,15.60
2023-04-07T08:20:53.732Z,14.63
2023-04-07T08:23:40.951Z,13.48
2023-04-07T08:26:27.986Z,13.05
2023-04-07T08:29:15.457Z,13.88
2023-04-07T08:32:02.527Z,15.13
2023-04-07T08:34:49.497Z,15.98
2023-04-07T08:37:37.566Z,14.98
2023-04-07T08:40:24.588Z,16.23
2023-04-07T08:43:14.128Z,16.17
2023-04-07T08:46:02.852Z,23.85
2023-04-07T08:48:52.663Z,14.13
2023-04-07T08:51:50.667Z,18.83
2023-04-07T08:54:38.487Z,22.48
2023-04-07T08:57:25.611Z,18.35
2023-04-07T09:00:13.763Z,15.98
2023-04-07T09:03:01.532Z,17.48
2023-04-07T09:05:49.656Z,13.45
2023-04-07T09:08:36.607Z,16.02
2023-04-07T09:11:23.808Z,18.80
2023-04-07T09:14:10.875Z,15.45
2023-04-07T09:17:00.173Z,19.90
2023-04-07T09:19:48.063Z,20.95
2023-04-07T09:22:42.582Z,22.48
2023-04-07T09:25:30.339Z,18.50
2023-04-07T09:28:17.302Z,23.70
2023-04-07T09:31:04.305Z,17.30
2023-04-07T09:33:51.784Z,17.45
2023-04-07T09:36:42.372Z,21.20
2023-04-07T09:39:29.659Z,22.67
2023-04-07T09:42:16.763Z,26.10
2023-04-07T09:45:04.068Z,18.08
2023-04-07T09:47:51.838Z,19.90
2023-04-07T09:50:42.100Z,18.52
2023-04-07T09:54:04.608Z,22.40
2023-04-07T09:56:51.475Z,18.55
2023-04-07T09:59:45.061Z,24.05
2023-04-07T10:02:32.823Z,22.45
2023-04-07T10:05:22.650Z,25.05
2023-04-07T10:08:10.258Z,21.88
2023-04-07T10:10:58.787Z,19.33
2023-04-07T10:13:46.643Z,22.83
2023-04-07T10:16:34.812Z,29.15
2023-04-07T10:19:22.688Z,25.67
2023-04-07T10:22:10.256Z,22.85
2023-04-07T10:25:11.149Z,18.73
2023-04-07T10:28:03.271Z,23.08
2023-04-07T10:30:51.325Z,21.30
2023-04-07T10:33:48.987Z,24.67
2023-04-07T10:36:36.779Z,25.60
2023-04-07T10:39:24.204Z,18.25
2023-04-07T10:42:59.147Z,19.15
2023-04-07T10:45:57.843Z,17.55
2023-04-07T10:49:09.148Z,17.95
2023-04-07T10:52:31.819Z,18.13
2023-04-07T10:55:54.851Z,20.48
2023-04-07T10:58:42.096Z,21.52
2023-04-07T11:01:29.161Z,24.15
2023-04-07T11:04:16.214Z,19.25
2023-04-07T11:07:03.225Z,17.95
2023-04-07T11:09:50.492Z,16.63
2023-04-07T11:12:37.434Z,20.70
2023-04-07T11:15:24.480Z,19.42
2023-04-07T11:18:19.399Z,20.27
2023-04-07T11:21:08.156Z,19.25
2023-04-07T11:23:55.060Z,18.25
2023-04-07T11:26:42.124Z,20.83
2023-04-07T11:29:32.452Z,20.15
2023-04-07T11:32:26.149Z,18.83
2023-04-07T11:35:13.315Z,21.83
2023-04-07T11:38:01.828Z,20.88
2023-04-07T11:40:48.847Z,19.95
2023-04-07T11:43:37.749Z,18.95
2023-04-07T11:46:24.754Z,19.05
2023-04-07T11:49:14.566Z,19.38
2023-04-07T11:52:04.500Z,16.80
2023-04-07T11:54:51.505Z,18.23
2023-04-07T11:57:38.422Z,18.63
2023-04-07T12:00:25.812Z,19.30
2023-04-07T12:03:16.465Z,21.35
2023-04-07T12:06:04.521Z,26.20
2023-04-07T12:08:51.471Z,17.85
2023-04-07T12:11:49.650Z,24.00
2023-04-07T12:14:37.297Z,21.63
2023-04-07T12:17:26.445Z,20.00
2023-04-07T12:20:14.094Z,19.67
2023-04-07T12:23:01.393Z,18.38
2023-04-07T12:25:48.428Z,16.30
2023-04-07T12:28:35.314Z,19.55
2023-04-07T12:31:22.261Z,18.83
2023-04-07T12:34:09.662Z,19.63
2023-04-07T12:36:56.598Z,19.30
2023-04-07T12:39:43.542Z,19.30
2023-04-07T12:42:30.544Z,27.73
2023-04-07T12:45:17.518Z,22.45
2023-04-07T12:48:04.906Z,20.95
2023-04-07T12:50:52.152Z,22.45
2023-04-07T12:53:39.108Z,21.00
2023-04-07T12:56:25.951Z,22.45
2023-04-07T12:59:13.607Z,18.73
2023-04-07T13:02:01.049Z,18.50
2023-04-07T13:04:48.148Z,17.75
2023-04-07T13:07:36.310Z,24.77
2023-04-07T13:10:23.203Z,22.52
2023-04-07T13:13:10.235Z,18.02
2023-04-07T13:15:57.519Z,19.15
2023-04-07T13:18:44.457Z,22.13
2023-04-07T13:24:21.922Z,22.25
2023-04-07T13:27:08.943Z,22.25
2023-04-07T13:29:56.133Z,20.13
2023-04-07T13:32:43.164Z,17.33
2023-04-07T13:35:35.442Z,16.65
2023-04-07T13:38:22.480Z,17.50
2023-04-07T13:41:09.454Z,18.52
2023-04-07T13:43:56.715Z,21.83
2023-04-07T13:46:43.722Z,21.30
2023-04-07T13:49:30.762Z,20.98
2023-04-07T13:52:17.938Z,19.63
2023-04-07T13:55:05.716Z,16.55
2023-04-07T13:57:53.189Z,17.73
2023-04-07T14:00:40.411Z,18.63
2023-04-07T14:03:28.227Z,19.33
2023-04-07T14:06:16.683Z,27.23
2023-04-07T14:09:04.149Z,18.30
2023-04-07T14:11:51.450Z,20.45
2023-04-07T14:14:38.751Z,18.23
2023-04-07T14:17:26.105Z,16.83
2023-04-07T14:20:13.089Z,21.65
2023-04-07T14:22:59.953Z,25.40
2023-04-07T14:25:47.629Z,20.50
2023-04-07T14:28:34.487Z,18.58
2023-04-07T14:31:21.439Z,17.85
2023-04-07T14:34:08.780Z,20.83
2023-04-07T14:36:58.667Z,17.58
2023-04-07T14:39:55.238Z,21.75
2023-04-07T14:45:36.158Z,24.25
2023-04-07T14:48:23.294Z,25.15
2023-04-07T14:51:12.884Z,20.02
2023-04-07T14:53:59.944Z,22.02
2023-04-07T14:56:46.867Z,25.00
2023-04-07T14:59:34.270Z,24.20
2023-04-07T15:02:22.084Z,32.88
2023-04-07T15:05:09.431Z,19.02
2023-04-07T15:07:57.092Z,21.13
2023-04-07T15:10:44.229Z,23.67
2023-04-07T15:13:31.159Z,21.23
2023-04-07T15:16:18.219Z,17.70
2023-04-07T15:19:05.247Z,18.27
2023-04-07T15:21:52.156Z,24.35
2023-04-07T15:24:39.084Z,19.13
2023-04-07T15:27:26.017Z,16.73
2023-04-07T15:30:13.174Z,22.63
2023-04-07T15:33:02.713Z,22.40
2023-04-07T15:35:50.492Z,20.38
2023-04-07T15:38:39.242Z,18.52
2023-04-07T15:41:27.326Z,16.58
2023-04-07T15:44:18.870Z,18.05
2023-04-07T15:47:06.765Z,23.73
2023-04-07T15:49:54.031Z,19.98
2023-04-07T15:52:40.945Z,15.38
2023-04-07T15:55:27.869Z,14.35
2023-04-07T15:58:14.839Z,18.38
2023-04-07T16:01:01.877Z,15.48
2023-04-07T16:03:49.236Z,14.20
2023-04-07T16:06:36.492Z,20.20
2023-04-07T16:09:23.515Z,14.18
2023-04-07T16:12:10.463Z,15.55
2023-04-07T16:14:58.647Z,16.02
2023-04-07T16:17:47.777Z,20.35
2023-04-07T16:20:34.703Z,15.55
2023-04-07T16:23:21.997Z,14.55
2023-04-07T16:26:08.939Z,15.15
2023-04-07T16:28:55.888Z,17.58
2023-04-07T16:31:44.336Z,14.35
2023-04-07T16:34:31.340Z,17.98
2023-04-07T16:37:18.292Z,13.85
2023-04-07T16:40:06.304Z,17.40
2023-04-07T16:42:53.267Z,14.00
2023-04-07T16:45:40.152Z,16.27
2023-04-07T16:48:27.182Z,19.33
2023-04-07T16:51:17.834Z,19.60
2023-04-07T16:54:05.930Z,16.42
2023-04-07T16:56:52.850Z,19.48
2023-04-07T16:59:40.176Z,18.50
2023-04-07T17:02:27.818Z,17.10
2023-04-07T17:05:15.009Z,12.75
2023-04-07T17:08:01.960Z,18.65
2023-04-07T17:10:48.905Z,19.35
2023-04-07T17:13:36.507Z,19.42
2023-04-07T17:16:24.068Z,16.58
2023-04-07T17:19:11.034Z,16.08
2023-04-07T17:22:04.083Z,14.75
2023-04-07T17:24:51.975Z,16.67
2023-04-07T17:27:39.010Z,15.30
2023-04-07T17:30:25.926Z,16.92
2023-04-07T17:33:12.949Z,18.00
2023-04-07T17:36:04.125Z,13.32
2023-04-07T17:38:51.252Z,14.93
2023-04-07T17:41:38.557Z,16.92
2023-04-07T17:44:25.626Z,15.60
2023-04-07T17:47:13.130Z,18.27
2023-04-07T17:50:00.060Z,16.60
2023-04-07T17:52:47.024Z,18.13
2023-04-07T17:55:34.004Z,19.70
2023-04-07T17:58:21.073Z,21.88
2023-04-07T18:01:10.676Z,18.20
2023-04-07T18:04:00.167Z,20.58
2023-04-07T18:06:47.198Z,22.10
2023-04-07T18:09:34.328Z,21.95
2023-04-07T18:12:21.621Z,16.80
2023-04-07T18:15:09.569Z,16.90
2023-04-07T18:17:57.129Z,17.75
2023-04-07T18:20:44.136Z,17.00
2023-04-07T18:23:31.122Z,16.52
2023-04-07T18:26:18.135Z,19.17
2023-04-07T18:29:05.311Z,19.10
2023-04-07T18:31:52.294Z,18.05
2023-04-07T18:34:39.387Z,17.05
2023-04-07T18:37:26.318Z,18.17
2023-04-07T18:40:13.597Z,19.63
2023-04-07T18:43:00.620Z,20.05
2023-04-07T18:45:47.778Z,17.45
2023-04-07T18:48:34.923Z,22.35
2023-04-07T18:51:21.914Z,14.68
2023-04-07T18:54:09.039Z,15.20
2023-04-07T18:56:56.314Z,14.32
2023-04-07T18:59:44.894Z,19.13
2023-04-07T19:02:32.035Z,19.17
2023-04-07T19:05:22.384Z,20.15
2023-04-07T19:08:11.557Z,16.20
2023-04-07T19:10:58.470Z,23.20
2023-04-07T19:13:45.486Z,21.92
2023-04-07T19:16:34.412Z,21.15
2023-04-07T19:19:21.370Z,19.40
2023-04-07T19:22:08.284Z,26.10
2023-04-07T19:24:55.827Z,25.85
2023-04-07T19:27:42.750Z,28.13
2023-04-07T19:30:29.751Z,23.38
2023-04-07T19:33:16.662Z,22.55
2023-04-07T19:36:04.687Z,22.35
2023-04-07T19:38:51.651Z,23.95
2023-04-07T19:41:38.872Z,20.92
2023-04-07T19:44:26.655Z,26.27
2023-04-07T19:47:13.636Z,22.00
2023-04-07T19:50:00.805Z,21.52
2023-04-07T19:52:47.782Z,18.77
2023-04-07T19:55:34.697Z,25.38
2023-04-07T19:58:22.822Z,21.90
2023-04-07T20:01:17.788Z,26.92
2023-04-07T20:04:04.834Z,21.52
2023-04-07T20:06:32.964Z,20.05
2023-04-07T20:09:00.502Z,29.35
2023-04-07T20:11:28.045Z,34.20
2023-04-07T20:13:54.694Z,36.30
2023-04-07T20:16:21.674Z,33.83
2023-04-07T20:18:49.243Z,30.27
2023-04-07T20:21:16.408Z,31.90
2023-04-07T20:23:43.136Z,31.33
2023-04-07T20:26:10.346Z,28.52
2023-04-07T20:28:36.974Z,26.42
2023-04-07T20:31:03.664Z,24.60
2023-04-07T20:33:30.525Z,23.38
2023-04-07T20:35:57.244Z,33.65
2023-04-07T20:38:25.035Z,28.73
2023-04-07T20:40:52.050Z,24.60
2023-04-07T20:43:22.013Z,27.35
2023-04-07T20:45:48.953Z,28.38
2023-04-07T20:48:17.218Z,24.98
2023-04-07T20:50:43.803Z,31.52
2023-04-07T20:53:10.468Z,31.55
2023-04-07T20:55:37.124Z,27.10
2023-04-07T20:58:03.723Z,24.55
2023-04-07T21:00:30.380Z,25.15
2023-04-07T21:02:57.075Z,24.58
2023-04-07T21:05:23.716Z,24.35
2023-04-07T21:07:50.515Z,26.23
2023-04-07T21:10:17.286Z,24.65
2023-04-07T21:12:43.903Z,25.38
2023-04-07T21:15:11.560Z,27.08
2023-04-07T21:17:38.411Z,28.77
2023-04-07T21:20:05.488Z,23.88
2023-04-07T21:22:32.087Z,27.10
2023-04-07T21:24:58.727Z,37.47
2023-04-07T21:27:25.643Z,37.67
2023-04-07T21:29:52.281Z,29.60
2023-04-07T21:32:19.001Z,28.27
2023-04-07T21:34:45.696Z,27.52
2023-04-07T21:37:12.306Z,28.48
2023-04-07T21:39:38.956Z,20.58
2023-04-07T21:42:05.898Z,24.80
2023-04-07T21:44:32.665Z,20.85
2023-04-07T21:46:59.439Z,22.65
2023-04-07T21:49:26.452Z,24.85
2023-04-07T21:51:53.649Z,30.05
2023-04-07T21:54:20.342Z,32.75
2023-04-07T21:56:49.070Z,25.90
2023-04-07T21:59:17.297Z,25.23
2023-04-07T22:01:46.076Z,25.67
2023-04-07T22:04:13.319Z,25.33
2023-04-07T22:06:40.136Z,24.55
2023-04-07T22:09:07.416Z,26.10
2023-04-07T22:11:34.568Z,29.17
2023-04-07T22:14:01.323Z,27.13
2023-04-07T22:16:28.000Z,26.98
2023-04-07T22:18:54.661Z,23.25
2023-04-07T22:21:21.718Z,24.85
2023-04-07T22:23:49.902Z,22.30
2023-04-07T22:26:17.391Z,24.88
2023-04-07T22:28:44.044Z,26.70
2023-04-07T22:31:10.869Z,28.00
2023-04-07T22:33:37.785Z,31.45
2023-04-07T22:36:04.785Z,26.80
2023-04-07T22:38:31.531Z,34.22
2023-04-07T22:40:58.162Z,21.80
2023-04-07T22:43:25.119Z,25.40
2023-04-07T22:45:53.905Z,23.33
2023-04-07T22:48:20.650Z,23.95
2023-04-07T22:50:47.296Z,25.20
2023-04-07T22:53:13.897Z,23.52
2023-04-07T22:55:40.796Z,24.85
2023-04-07T22:58:07.424Z,20.23
2023-04-07T23:00:34.191Z,18.58
2023-04-07T23:03:00.966Z,21.63
2023-04-07T23:05:27.747Z,25.83
2023-04-07T23:07:54.719Z,22.20
2023-04-07T23:10:21.712Z,22.13
2023-04-07T23:12:48.357Z,19.35
2023-04-07T23:15:15.239Z,24.42
2023-04-07T23:17:41.903Z,22.73
2023-04-07T23:20:09.537Z,21.77
2023-04-07T23:22:36.182Z,24.80
2023-04-07T23:25:03.116Z,20.77
2023-04-07T23:27:29.728Z,20.40
2023-04-07T23:29:56.412Z,25.00
2023-04-07T23:32:23.049Z,22.02
2023-04-07T23:34:49.691Z,21.35
2023-04-07T23:37:16.391Z,22.30
2023-04-07T23:39:43.574Z,20.77
2023-04-07T23:42:10.647Z,21.50
2023-04-07T23:44:37.266Z,21.30
2023-04-07T23:47:03.913Z,19.88
2023-04-07T23:49:31.324Z,19.75
2023-04-07T23:51:58.028Z,24.75
2023-04-07T23:54:24.750Z,22.05
2023-04-07T23:56:51.381Z,22.58
2023-04-07T23:59:18.127Z,29.45
